Pagrindinis puslapis
METAR-TAF:

METAR-TAF

Oro uostai :

Childress, Teksasas, Jungtinės Amerikos Valstijos

platuma: 34-25-39N, ilguma: 100-17-00W, Aukštis: 595 m

Dabartinis oras

Ataskaita buvo paskelbta 17 minutes, ne 10:53 UTC
Vėjas 4 kt iš Šiaurės
Temperatūra 17°C
Drėgmė 77%
Slėgis 1023 hPa
Matomumas: 16.1 km
Giedras dangus

METAR: KCDS 291053Z AUTO 35004KT 10SM CLR 17/13 A3021 RMK AO2 SLP207 T01670128

Laikas: 06:10 (11:10 UTC)

Prognozė

Ataskaita buvo paskelbta 5 valandos ir 49 minutes, ne 05:21 UTC
Prognozė galioja nuo 29 metu 06 UTC su 30 metu 06 UTC
Vėjas 6 kt nuo kintamojo kryptimis
Matomumas: 10 km
Mažai debesys ne aukštis 25000 ft

TAF: KCDS 290521Z 2906/3006 VRB06KT P6SM FEW250

Orai ataskaitas ir orų prognozės (METAR, TAF).

turimą stotys yra geltonos ir raudonos taškus žemėlapyje.

Perkelti pele per norėdami pamatyti stoties vardą.

Tada spustelėkite, norėdami matyti oro stebėjimo ir prognozės.

Norėdami pakeisti žemėlapį: spustelėkite ant žalios mygtukų su juodo kryžiaus žemyn,; žalią mygtuką su brūkšneliu, jei norite nutolinti; arba žalių rodyklių gretimoms žemėlapius.


METAR-TAF: